createdAt,value
2022-12-28T00:01:14.330Z,2.80
2022-12-28T00:03:43.407Z,2.00
2022-12-28T00:06:11.356Z,2.27
2022-12-28T00:08:39.102Z,2.13
2022-12-28T00:11:18.615Z,2.30
2022-12-28T00:13:51.219Z,2.47
2022-12-28T00:16:24.661Z,2.20
2022-12-28T00:18:53.404Z,2.23
2022-12-28T00:21:20.455Z,2.20
2022-12-28T00:23:50.898Z,2.23
2022-12-28T00:26:18.224Z,2.23
2022-12-28T00:28:45.254Z,1.70
2022-12-28T00:31:12.690Z,2.07
2022-12-28T00:33:39.960Z,2.20
2022-12-28T00:36:12.744Z,2.37
2022-12-28T00:38:40.345Z,2.63
2022-12-28T00:41:08.427Z,1.60
2022-12-28T00:43:36.008Z,2.20
2022-12-28T00:46:03.635Z,2.17
2022-12-28T00:48:30.628Z,2.10
2022-12-28T00:51:03.394Z,2.10
2022-12-28T00:53:31.692Z,2.60
2022-12-28T00:56:06.572Z,2.00
2022-12-28T00:58:33.696Z,2.00
2022-12-28T01:01:00.785Z,2.03
2022-12-28T01:03:27.850Z,2.00
2022-12-28T01:05:55.784Z,2.50
2022-12-28T01:08:22.789Z,1.73
2022-12-28T01:10:51.042Z,1.80
2022-12-28T01:13:17.954Z,2.17
2022-12-28T01:15:44.900Z,1.90
2022-12-28T01:18:12.758Z,2.20
2022-12-28T01:20:40.223Z,1.90
2022-12-28T01:23:07.407Z,2.37
2022-12-28T01:25:34.730Z,2.23
2022-12-28T01:28:03.037Z,2.40
2022-12-28T01:30:30.493Z,2.47
2022-12-28T01:32:59.640Z,2.10
2022-12-28T01:35:27.870Z,1.90
2022-12-28T01:37:56.879Z,2.00
2022-12-28T01:40:23.837Z,1.73
2022-12-28T01:42:50.803Z,2.17
2022-12-28T01:45:22.062Z,2.13
2022-12-28T01:47:53.610Z,2.23
2022-12-28T01:50:27.325Z,1.83
2022-12-28T01:53:03.307Z,2.20
2022-12-28T01:55:35.814Z,2.30
2022-12-28T01:58:08.211Z,1.77
2022-12-28T02:00:36.829Z,2.07
2022-12-28T02:03:10.289Z,2.00
2022-12-28T02:05:41.019Z,2.03
2022-12-28T02:08:16.789Z,2.07
2022-12-28T02:10:46.253Z,2.13
2022-12-28T02:13:16.937Z,2.30
2022-12-28T02:15:48.147Z,2.03
2022-12-28T02:18:18.131Z,2.03
2022-12-28T02:21:16.485Z,1.67
2022-12-28T02:24:15.194Z,1.80
2022-12-28T02:26:53.982Z,2.23
2022-12-28T02:29:55.629Z,2.20
2022-12-28T02:32:55.673Z,1.90
2022-12-28T02:35:37.046Z,2.13
2022-12-28T02:38:15.848Z,1.80
2022-12-28T02:40:49.850Z,2.10
2022-12-28T02:43:17.037Z,2.40
2022-12-28T02:46:05.832Z,2.53
2022-12-28T02:48:59.446Z,2.13
2022-12-28T02:51:58.113Z,2.00
2022-12-28T02:55:20.759Z,1.60
2022-12-28T02:58:25.395Z,2.40
2022-12-28T03:01:13.390Z,2.67
2022-12-28T03:03:59.894Z,1.73
2022-12-28T03:07:04.650Z,1.87
2022-12-28T03:09:41.544Z,2.10
2022-12-28T03:12:19.531Z,2.00
2022-12-28T03:14:56.434Z,2.23
2022-12-28T03:17:47.485Z,2.37
2022-12-28T03:20:41.999Z,1.70
2022-12-28T03:23:32.458Z,2.10
2022-12-28T03:26:21.437Z,2.30
2022-12-28T03:29:09.485Z,2.10
2022-12-28T03:31:37.507Z,1.57
2022-12-28T03:34:07.036Z,1.90
2022-12-28T03:36:47.854Z,2.33
2022-12-28T03:39:30.248Z,2.27
2022-12-28T03:42:24.760Z,2.00
2022-12-28T03:45:01.637Z,2.20
2022-12-28T03:47:31.700Z,1.97
2022-12-28T03:50:00.550Z,2.10
2022-12-28T03:52:28.381Z,1.73
2022-12-28T03:54:55.385Z,1.70
2022-12-28T03:57:23.164Z,1.57
2022-12-28T03:59:50.165Z,2.23
2022-12-28T04:02:17.251Z,1.93
2022-12-28T04:04:44.237Z,1.77
2022-12-28T04:07:12.518Z,1.83
2022-12-28T04:09:39.391Z,2.10
2022-12-28T04:12:06.800Z,1.80
2022-12-28T04:14:33.695Z,1.70
2022-12-28T04:17:00.572Z,1.93
2022-12-28T04:19:27.618Z,2.47
2022-12-28T04:21:54.488Z,1.93
2022-12-28T04:24:22.787Z,2.37
2022-12-28T04:26:49.643Z,2.10
2022-12-28T04:29:16.509Z,1.90
2022-12-28T04:31:43.446Z,1.90
2022-12-28T04:34:11.037Z,2.40
2022-12-28T04:36:39.479Z,2.00
2022-12-28T04:39:06.549Z,2.20
2022-12-28T04:41:34.805Z,2.40
2022-12-28T04:44:01.987Z,2.70
2022-12-28T04:46:28.971Z,2.70
2022-12-28T04:48:55.897Z,2.80
2022-12-28T04:51:25.956Z,2.60
2022-12-28T04:53:53.878Z,2.60
2022-12-28T04:56:23.413Z,2.70
2022-12-28T04:58:56.134Z,2.80
2022-12-28T05:01:23.829Z,3.17
2022-12-28T05:03:57.179Z,2.90
2022-12-28T05:06:25.624Z,2.93
2022-12-28T05:08:52.743Z,2.80
2022-12-28T05:11:23.715Z,3.30
2022-12-28T05:13:51.080Z,3.37
2022-12-28T05:16:22.310Z,2.87
2022-12-28T05:18:49.850Z,3.33
2022-12-28T05:21:19.910Z,3.20
2022-12-28T05:23:48.952Z,3.27
2022-12-28T05:26:18.660Z,3.47
2022-12-28T05:28:46.525Z,2.73
2022-12-28T05:31:17.163Z,3.83
2022-12-28T05:33:46.005Z,3.30
2022-12-28T05:36:16.954Z,3.33
2022-12-28T05:38:44.803Z,2.83
2022-12-28T05:41:15.466Z,3.03
2022-12-28T05:43:43.345Z,3.30
2022-12-28T05:46:13.994Z,3.67
2022-12-28T05:48:42.792Z,4.77
2022-12-28T05:51:13.968Z,3.43
2022-12-28T05:53:42.543Z,3.20
2022-12-28T05:56:14.572Z,3.33
2022-12-28T05:58:43.007Z,3.30
2022-12-28T06:01:12.973Z,3.10
2022-12-28T06:03:40.782Z,3.50
2022-12-28T06:06:13.146Z,3.13
2022-12-28T06:08:41.213Z,3.07
2022-12-28T06:11:11.226Z,2.90
2022-12-28T06:13:38.799Z,3.37
2022-12-28T06:16:07.474Z,2.80
2022-12-28T06:18:35.510Z,3.00
2022-12-28T06:21:05.313Z,3.00
2022-12-28T06:23:34.040Z,3.10
2022-12-28T06:26:03.177Z,3.10
2022-12-28T06:28:30.283Z,3.30
2022-12-28T06:31:05.425Z,3.00
2022-12-28T06:33:33.358Z,2.67
2022-12-28T06:36:00.499Z,3.07
2022-12-28T06:38:29.557Z,3.33
2022-12-28T06:41:13.517Z,3.20
2022-12-28T06:43:43.741Z,3.23
2022-12-28T06:46:12.416Z,2.97
2022-12-28T06:48:40.482Z,3.50
2022-12-28T06:51:11.840Z,3.23
2022-12-28T06:53:39.209Z,3.10
2022-12-28T06:56:11.409Z,4.30
2022-12-28T06:58:39.683Z,3.60
2022-12-28T07:01:09.172Z,3.90
2022-12-28T07:03:36.376Z,3.97
2022-12-28T07:06:05.565Z,3.80
2022-12-28T07:08:33.517Z,3.57
2022-12-28T07:11:05.360Z,4.30
2022-12-28T07:13:34.621Z,3.80
2022-12-28T07:16:04.187Z,3.90
2022-12-28T07:18:31.602Z,4.13
2022-12-28T07:21:00.659Z,3.30
2022-12-28T07:23:30.094Z,4.03
2022-12-28T07:25:58.001Z,4.23
2022-12-28T07:28:25.338Z,3.67
2022-12-28T07:30:53.585Z,4.30
2022-12-28T07:33:20.478Z,3.83
2022-12-28T07:35:47.347Z,5.73
2022-12-28T07:38:20.949Z,3.50
2022-12-28T07:40:48.720Z,3.53
2022-12-28T07:43:15.592Z,4.00
2022-12-28T07:45:43.450Z,3.63
2022-12-28T07:48:11.694Z,3.60
2022-12-28T07:50:38.659Z,4.90
2022-12-28T07:53:05.667Z,3.57
2022-12-28T07:55:32.580Z,3.53
2022-12-28T07:57:59.453Z,3.57
2022-12-28T08:00:26.436Z,3.50
2022-12-28T08:02:56.044Z,3.40
2022-12-28T08:05:24.306Z,3.60
2022-12-28T08:07:51.222Z,3.37
2022-12-28T08:10:18.039Z,3.60
2022-12-28T08:12:44.900Z,3.67
2022-12-28T08:15:12.129Z,3.33
2022-12-28T08:17:38.977Z,2.97
2022-12-28T08:20:07.181Z,2.87
2022-12-28T08:22:35.497Z,3.40
2022-12-28T08:25:03.991Z,3.10
2022-12-28T08:27:36.564Z,3.27
2022-12-28T08:30:07.204Z,2.63
2022-12-28T08:32:34.068Z,2.50
2022-12-28T08:35:01.039Z,2.87
2022-12-28T08:37:27.968Z,3.23
2022-12-28T08:39:56.225Z,2.40
2022-12-28T08:42:23.058Z,2.73
2022-12-28T08:44:49.925Z,2.60
2022-12-28T08:47:16.876Z,2.80
2022-12-28T08:49:44.542Z,2.60
2022-12-28T08:52:11.446Z,2.97
2022-12-28T08:54:38.330Z,2.63
2022-12-28T08:57:06.562Z,3.03
2022-12-28T08:59:33.410Z,2.20
2022-12-28T09:02:00.346Z,2.50
2022-12-28T09:04:27.433Z,2.97
2022-12-28T09:06:54.474Z,2.50
2022-12-28T09:09:21.884Z,2.13
2022-12-28T09:11:49.223Z,2.60
2022-12-28T09:14:23.293Z,2.53
2022-12-28T09:16:52.223Z,2.40
2022-12-28T09:19:19.609Z,2.67
2022-12-28T09:21:48.943Z,2.30
2022-12-28T09:24:16.017Z,2.47
2022-12-28T09:26:43.181Z,2.40
2022-12-28T09:29:16.168Z,2.60
2022-12-28T09:31:44.587Z,2.30
2022-12-28T09:37:02.931Z,2.40
2022-12-28T09:39:29.972Z,2.47
2022-12-28T09:42:01.336Z,2.50
2022-12-28T09:44:49.361Z,2.70
2022-12-28T09:47:33.967Z,1.90
2022-12-28T09:50:24.947Z,1.80
2022-12-28T09:53:13.579Z,2.10
2022-12-28T09:55:53.408Z,1.80
2022-12-28T09:58:21.870Z,2.30
2022-12-28T10:00:53.999Z,2.37
2022-12-28T10:03:27.057Z,1.60
2022-12-28T10:05:57.513Z,2.03
2022-12-28T10:08:26.366Z,2.30
2022-12-28T10:10:59.360Z,2.40
2022-12-28T10:13:54.085Z,2.10
2022-12-28T10:16:23.969Z,2.00
2022-12-28T10:18:52.707Z,2.03
2022-12-28T10:21:31.605Z,2.10
2022-12-28T10:26:48.236Z,1.83
2022-12-28T10:29:20.475Z,1.83
2022-12-28T10:31:59.700Z,1.90
2022-12-28T10:34:35.711Z,2.00
2022-12-28T10:37:15.504Z,1.60
2022-12-28T10:39:51.538Z,2.13
2022-12-28T10:42:25.440Z,1.80
2022-12-28T10:44:57.572Z,2.27
2022-12-28T10:47:34.933Z,1.80
2022-12-28T10:52:58.120Z,1.93
2022-12-28T10:55:30.820Z,2.60
2022-12-28T10:58:33.753Z,1.90
2022-12-28T11:01:05.679Z,1.70
2022-12-28T11:03:37.294Z,1.70
2022-12-28T11:06:22.748Z,2.13
2022-12-28T11:09:16.400Z,2.40
2022-12-28T11:11:47.127Z,1.93
2022-12-28T11:14:28.085Z,1.80
2022-12-28T11:16:55.026Z,1.70
2022-12-28T11:19:24.329Z,2.07
2022-12-28T11:21:53.255Z,2.27
2022-12-28T11:24:26.961Z,2.07
2022-12-28T11:26:54.179Z,1.90
2022-12-28T11:29:21.230Z,2.00
2022-12-28T11:31:56.645Z,2.00
2022-12-28T11:34:28.271Z,2.20
2022-12-28T11:36:57.084Z,1.90
2022-12-28T11:39:44.418Z,1.80
2022-12-28T11:44:59.979Z,1.50
2022-12-28T11:47:36.212Z,1.70
2022-12-28T11:50:50.225Z,1.73
2022-12-28T11:53:58.372Z,1.70
2022-12-28T11:56:28.597Z,1.87
2022-12-28T11:59:21.518Z,1.97
2022-12-28T12:01:57.011Z,1.50
2022-12-28T12:04:43.705Z,1.70
2022-12-28T12:07:47.833Z,2.17
2022-12-28T12:10:35.351Z,1.60
2022-12-28T12:13:37.498Z,1.83
2022-12-28T12:16:15.975Z,1.50
2022-12-28T12:18:48.706Z,1.30
2022-12-28T12:21:31.317Z,1.90
2022-12-28T12:24:12.955Z,1.60
2022-12-28T12:26:50.955Z,1.20
2022-12-28T12:29:25.952Z,1.40
2022-12-28T12:32:02.352Z,1.50
2022-12-28T12:34:43.666Z,1.30
2022-12-28T12:37:45.924Z,1.80
2022-12-28T12:41:10.181Z,1.20
2022-12-28T12:43:56.756Z,1.40
2022-12-28T12:47:05.391Z,1.13
2022-12-28T12:50:17.351Z,1.23
2022-12-28T12:53:05.288Z,1.10
2022-12-28T12:55:55.824Z,1.10
2022-12-28T12:58:30.574Z,1.27
2022-12-28T13:01:22.912Z,1.50
2022-12-28T13:03:50.937Z,1.20
2022-12-28T13:06:24.218Z,1.30
2022-12-28T13:08:59.090Z,1.10
2022-12-28T13:11:30.874Z,1.23
2022-12-28T13:13:57.783Z,1.40
2022-12-28T13:16:31.005Z,1.53
2022-12-28T13:19:00.990Z,1.43
2022-12-28T13:21:30.728Z,1.40
2022-12-28T13:23:57.653Z,1.53
2022-12-28T13:26:29.242Z,1.50
2022-12-28T13:29:01.468Z,1.57
2022-12-28T13:31:41.902Z,1.40
2022-12-28T13:34:18.699Z,1.50
2022-12-28T13:36:53.577Z,1.33
2022-12-28T13:39:21.441Z,1.93
2022-12-28T13:41:52.065Z,1.53
2022-12-28T13:44:29.908Z,1.23
2022-12-28T13:47:05.711Z,1.07
2022-12-28T13:49:41.702Z,1.00
2022-12-28T13:52:16.820Z,1.10
2022-12-28T13:54:52.175Z,1.07
2022-12-28T14:00:11.405Z,1.30
2022-12-28T14:02:41.763Z,1.10
2022-12-28T14:05:16.107Z,2.00
2022-12-28T14:07:43.301Z,1.43
2022-12-28T14:10:11.696Z,1.10
2022-12-28T14:12:39.471Z,1.20
2022-12-28T14:15:09.450Z,1.00
2022-12-28T14:17:38.629Z,1.13
2022-12-28T14:20:09.884Z,1.00
2022-12-28T14:22:40.071Z,1.20
2022-12-28T14:25:10.509Z,1.20
2022-12-28T14:27:42.524Z,1.90
2022-12-28T14:30:23.395Z,1.40
2022-12-28T14:32:51.660Z,1.20
2022-12-28T14:35:23.386Z,1.03
2022-12-28T14:37:54.032Z,1.00
2022-12-28T14:40:30.463Z,1.33
2022-12-28T14:43:03.330Z,1.27
2022-12-28T14:48:37.117Z,1.87
2022-12-28T14:51:24.019Z,1.27
2022-12-28T14:54:17.977Z,1.53
2022-12-28T14:56:51.283Z,1.40
2022-12-28T14:59:25.339Z,1.37
2022-12-28T15:00:25.281Z,1.67
2022-12-28T15:01:52.585Z,1.27
2022-12-28T15:04:37.215Z,1.50
2022-12-28T15:07:07.635Z,1.53
2022-12-28T15:09:34.890Z,1.20
2022-12-28T15:12:13.685Z,1.53
2022-12-28T15:14:41.403Z,1.80
2022-12-28T15:17:09.460Z,1.43
2022-12-28T15:19:36.433Z,1.87
2022-12-28T15:22:04.954Z,1.47
2022-12-28T15:24:34.281Z,1.80
2022-12-28T15:27:01.728Z,1.53
2022-12-28T15:29:55.683Z,1.70
2022-12-28T15:32:16.137Z,1.70
2022-12-28T15:34:43.227Z,2.40
2022-12-28T15:37:11.456Z,2.10
2022-12-28T15:39:38.356Z,1.93
2022-12-28T15:42:05.439Z,1.60
2022-12-28T15:44:32.446Z,1.90
2022-12-28T15:46:59.482Z,1.70
2022-12-28T15:49:26.569Z,2.10
2022-12-28T15:51:53.631Z,1.80
2022-12-28T15:54:21.868Z,2.10
2022-12-28T15:56:53.699Z,1.90
2022-12-28T15:59:20.959Z,1.70
2022-12-28T16:01:48.232Z,1.73
2022-12-28T16:04:15.449Z,1.77
2022-12-28T16:06:44.940Z,1.90
2022-12-28T16:09:13.813Z,1.87
2022-12-28T16:11:42.821Z,2.10
2022-12-28T16:14:15.328Z,1.63
2022-12-28T16:16:43.753Z,1.60
2022-12-28T16:19:12.727Z,1.90
2022-12-28T16:21:40.170Z,1.40
2022-12-28T16:24:07.805Z,2.13
2022-12-28T16:26:34.996Z,1.93
2022-12-28T16:29:03.461Z,1.80
2022-12-28T16:31:33.340Z,2.27
2022-12-28T16:34:03.707Z,2.00
2022-12-28T16:36:31.650Z,1.80
2022-12-28T16:38:58.930Z,2.10
2022-12-28T16:41:31.402Z,1.70
2022-12-28T16:44:05.994Z,2.17
2022-12-28T16:46:33.479Z,2.03
2022-12-28T16:49:01.948Z,1.80
2022-12-28T16:51:29.829Z,2.00
2022-12-28T16:53:57.281Z,2.83
2022-12-28T16:56:24.293Z,2.90
2022-12-28T16:58:55.833Z,2.30
2022-12-28T17:01:24.215Z,2.60
2022-12-28T17:03:51.190Z,3.03
2022-12-28T17:06:18.961Z,2.50
2022-12-28T17:08:45.963Z,2.83
2022-12-28T17:11:13.564Z,2.20
2022-12-28T17:13:40.473Z,2.27
2022-12-28T17:16:08.779Z,2.57
2022-12-28T17:18:37.984Z,2.67
2022-12-28T17:21:09.967Z,2.70
2022-12-28T17:23:39.308Z,2.00
2022-12-28T17:26:06.588Z,2.30
2022-12-28T17:28:33.533Z,2.43
2022-12-28T17:31:07.528Z,2.40
2022-12-28T17:33:39.164Z,2.20
2022-12-28T17:36:08.955Z,2.00
2022-12-28T17:38:36.078Z,2.20
2022-12-28T17:41:08.910Z,2.27
2022-12-28T17:43:36.097Z,2.10
2022-12-28T17:46:03.694Z,1.87
2022-12-28T17:48:31.028Z,2.00
2022-12-28T17:50:58.959Z,2.50
2022-12-28T17:53:29.102Z,2.40
2022-12-28T17:55:55.951Z,2.13
2022-12-28T17:58:22.844Z,1.83
2022-12-28T18:00:54.880Z,2.47
2022-12-28T18:03:22.028Z,2.20
2022-12-28T18:05:49.428Z,1.90
2022-12-28T18:08:16.618Z,1.67
2022-12-28T18:10:45.652Z,2.30
2022-12-28T18:13:14.084Z,1.80
2022-12-28T18:15:43.160Z,2.03
2022-12-28T18:18:10.410Z,2.00
2022-12-28T18:20:37.364Z,2.00
2022-12-28T18:23:04.344Z,2.17
2022-12-28T18:25:31.764Z,2.03
2022-12-28T18:27:59.992Z,2.00
2022-12-28T18:30:26.995Z,1.73
2022-12-28T18:32:53.911Z,1.70
2022-12-28T18:35:24.849Z,1.70
2022-12-28T18:37:51.903Z,1.90
2022-12-28T18:40:18.969Z,2.33
2022-12-28T18:42:45.822Z,1.87
2022-12-28T18:45:14.303Z,1.83
2022-12-28T18:47:41.237Z,1.83
2022-12-28T18:50:09.333Z,1.63
2022-12-28T18:52:36.263Z,1.60
2022-12-28T18:55:03.925Z,2.00
2022-12-28T18:57:30.827Z,1.80
2022-12-28T18:59:57.689Z,1.70
2022-12-28T19:02:26.009Z,1.93
2022-12-28T19:04:53.315Z,1.80
2022-12-28T19:07:20.408Z,2.40
2022-12-28T19:10:12.966Z,1.57
2022-12-28T19:12:41.085Z,1.90
2022-12-28T19:15:09.523Z,2.20
2022-12-28T19:17:37.821Z,1.50
2022-12-28T19:20:06.342Z,1.80
2022-12-28T19:22:33.310Z,1.93
2022-12-28T19:25:00.250Z,2.10
2022-12-28T19:27:27.324Z,1.50
2022-12-28T19:29:54.178Z,1.60
2022-12-28T19:32:21.140Z,2.50
2022-12-28T19:34:49.436Z,2.03
2022-12-28T19:37:16.295Z,2.17
2022-12-28T19:39:43.204Z,1.70
2022-12-28T19:42:10.133Z,2.37
2022-12-28T19:44:37.011Z,2.10
2022-12-28T19:47:03.942Z,2.00
2022-12-28T19:49:30.855Z,2.00
2022-12-28T19:51:59.092Z,1.90
2022-12-28T19:54:25.997Z,2.40
2022-12-28T19:56:52.837Z,1.87
2022-12-28T19:59:19.725Z,2.47
2022-12-28T20:01:46.672Z,1.90
2022-12-28T20:04:14.609Z,1.90
2022-12-28T20:06:43.578Z,2.00
2022-12-28T20:09:13.445Z,2.00
2022-12-28T20:11:40.706Z,1.93
2022-12-28T20:14:10.045Z,2.53
2022-12-28T20:16:37.492Z,2.30
2022-12-28T20:19:06.835Z,1.80
2022-12-28T20:21:35.333Z,2.30
2022-12-28T20:24:02.935Z,2.10
2022-12-28T20:26:32.465Z,2.33
2022-12-28T20:29:01.327Z,2.00
2022-12-28T20:31:29.182Z,2.13
2022-12-28T20:33:56.287Z,2.07
2022-12-28T20:36:26.546Z,2.20
2022-12-28T20:38:55.101Z,2.20
2022-12-28T20:41:43.862Z,1.83
2022-12-28T20:44:16.298Z,2.20
2022-12-28T20:46:44.184Z,2.13
2022-12-28T20:49:12.162Z,2.03
2022-12-28T20:51:41.176Z,2.47
2022-12-28T20:54:10.287Z,2.60
2022-12-28T20:56:38.481Z,1.73
2022-12-28T20:59:05.806Z,2.50
2022-12-28T21:01:35.718Z,1.63
2022-12-28T21:04:03.059Z,2.10
2022-12-28T21:06:29.993Z,1.93
2022-12-28T21:08:56.859Z,2.10
2022-12-28T21:11:23.836Z,2.00
2022-12-28T21:13:53.802Z,2.27
2022-12-28T21:16:20.786Z,1.80
2022-12-28T21:18:50.592Z,2.00
2022-12-28T21:21:21.777Z,2.20
2022-12-28T21:23:49.280Z,2.00
2022-12-28T21:26:18.880Z,2.00
2022-12-28T21:28:45.806Z,2.07
2022-12-28T21:31:13.820Z,1.70
2022-12-28T21:33:41.279Z,1.47
2022-12-28T21:36:14.983Z,1.80
2022-12-28T21:38:44.098Z,2.30
2022-12-28T21:41:14.310Z,2.20
2022-12-28T21:43:42.095Z,1.87
2022-12-28T21:46:13.394Z,1.73
2022-12-28T21:48:41.491Z,2.00
2022-12-28T21:51:31.162Z,1.87
2022-12-28T21:53:59.178Z,1.93
2022-12-28T21:56:26.485Z,1.80
2022-12-28T21:58:53.313Z,1.70
2022-12-28T22:01:39.234Z,1.90
2022-12-28T22:04:25.199Z,1.97
2022-12-28T22:06:53.428Z,2.03
2022-12-28T22:09:38.650Z,2.20
2022-12-28T22:12:24.684Z,1.90
2022-12-28T22:15:11.541Z,2.20
2022-12-28T22:17:38.424Z,2.40
2022-12-28T22:20:06.884Z,2.13
2022-12-28T22:22:35.083Z,1.80
2022-12-28T22:25:02.062Z,2.40
2022-12-28T22:27:28.937Z,2.00
2022-12-28T22:29:55.784Z,2.17
2022-12-28T22:32:24.028Z,2.10
2022-12-28T22:34:50.938Z,2.30
2022-12-28T22:37:18.107Z,2.17
2022-12-28T22:39:46.369Z,2.63
2022-12-28T22:42:15.373Z,2.40
2022-12-28T22:44:42.419Z,2.43
2022-12-28T22:47:09.563Z,2.40
2022-12-28T22:49:36.515Z,2.50
2022-12-28T22:52:03.682Z,2.00
2022-12-28T22:54:30.581Z,1.90
2022-12-28T22:56:58.792Z,2.67
2022-12-28T22:59:25.746Z,2.60
2022-12-28T23:01:53.169Z,2.43
2022-12-28T23:04:20.567Z,2.47
2022-12-28T23:06:47.513Z,2.33
2022-12-28T23:09:14.558Z,2.47
2022-12-28T23:11:41.585Z,2.83
2022-12-28T23:14:32.243Z,2.93
2022-12-28T23:17:01.079Z,2.50
2022-12-28T23:19:47.500Z,2.33
2022-12-28T23:22:37.536Z,2.97
2022-12-28T23:25:24.525Z,2.70
2022-12-28T23:27:52.090Z,3.20
2022-12-28T23:30:22.374Z,2.90
2022-12-28T23:32:51.611Z,2.80
2022-12-28T23:35:21.294Z,2.90
2022-12-28T23:37:48.904Z,2.63
2022-12-28T23:40:18.992Z,2.80
2022-12-28T23:42:46.219Z,2.70
2022-12-28T23:45:16.234Z,3.10
2022-12-28T23:47:45.331Z,2.77
2022-12-28T23:50:15.407Z,3.03
2022-12-28T23:52:42.799Z,3.27
2022-12-28T23:55:10.609Z,2.93
2022-12-28T23:57:38.336Z,2.70
